sensor_id;sensor_type;location;lat;lon;timestamp;P1;durP1;ratioP1;P2;durP2;ratioP2
6547;SDS011;3307;52.416;16.862;2022-09-20T00:00:36;4.88;;;4.00;;
6547;SDS011;3307;52.416;16.862;2022-09-20T00:03:02;4.78;;;3.78;;
6547;SDS011;3307;52.416;16.862;2022-09-20T00:05:28;4.80;;;4.30;;
6547;SDS011;3307;52.416;16.862;2022-09-20T00:07:53;5.40;;;4.10;;
6547;SDS011;3307;52.416;16.862;2022-09-20T00:10:19;6.37;;;4.00;;
6547;SDS011;3307;52.416;16.862;2022-09-20T00:12:46;8.27;;;4.07;;
6547;SDS011;3307;52.416;16.862;2022-09-20T00:15:11;5.43;;;4.20;;
6547;SDS011;3307;52.416;16.862;2022-09-20T00:17:37;7.13;;;4.30;;
6547;SDS011;3307;52.416;16.862;2022-09-20T00:20:02;4.97;;;4.23;;
6547;SDS011;3307;52.416;16.862;2022-09-20T00:22:28;4.23;;;3.80;;
6547;SDS011;3307;52.416;16.862;2022-09-20T00:24:53;3.83;;;3.53;;
6547;SDS011;3307;52.416;16.862;2022-09-20T00:27:19;4.13;;;3.83;;
6547;SDS011;3307;52.416;16.862;2022-09-20T00:29:44;4.47;;;3.90;;
6547;SDS011;3307;52.416;16.862;2022-09-20T00:32:09;5.07;;;4.10;;
6547;SDS011;3307;52.416;16.862;2022-09-20T00:34:35;4.73;;;4.23;;
6547;SDS011;3307;52.416;16.862;2022-09-20T00:37:19;5.57;;;4.55;;
6547;SDS011;3307;52.416;16.862;2022-09-20T00:39:44;7.83;;;4.50;;
6547;SDS011;3307;52.416;16.862;2022-09-20T00:42:13;5.77;;;4.20;;
6547;SDS011;3307;52.416;16.862;2022-09-20T00:47:16;4.93;;;4.43;;
6547;SDS011;3307;52.416;16.862;2022-09-20T00:49:46;7.03;;;4.40;;
6547;SDS011;3307;52.416;16.862;2022-09-20T00:52:12;4.95;;;3.50;;
6547;SDS011;3307;52.416;16.862;2022-09-20T00:54:39;5.15;;;4.65;;
6547;SDS011;3307;52.416;16.862;2022-09-20T00:57:04;4.30;;;3.87;;
6547;SDS011;3307;52.416;16.862;2022-09-20T00:59:33;5.37;;;4.70;;
6547;SDS011;3307;52.416;16.862;2022-09-20T01:02:11;4.68;;;4.15;;
6547;SDS011;3307;52.416;16.862;2022-09-20T01:04:39;5.35;;;4.85;;
6547;SDS011;3307;52.416;16.862;2022-09-20T01:07:07;3.88;;;3.47;;
6547;SDS011;3307;52.416;16.862;2022-09-20T01:09:33;9.82;;;3.55;;
6547;SDS011;3307;52.416;16.862;2022-09-20T01:12:00;6.60;;;4.63;;
6547;SDS011;3307;52.416;16.862;2022-09-20T01:14:28;4.70;;;4.30;;
6547;SDS011;3307;52.416;16.862;2022-09-20T01:16:55;6.27;;;5.17;;
6547;SDS011;3307;52.416;16.862;2022-09-20T01:19:27;5.00;;;4.60;;
6547;SDS011;3307;52.416;16.862;2022-09-20T01:22:06;5.25;;;4.72;;
6547;SDS011;3307;52.416;16.862;2022-09-20T01:27:22;5.05;;;4.40;;
6547;SDS011;3307;52.416;16.862;2022-09-20T01:30:08;5.43;;;4.90;;
6547;SDS011;3307;52.416;16.862;2022-09-20T01:35:07;4.88;;;4.47;;
6547;SDS011;3307;52.416;16.862;2022-09-20T01:37:41;5.70;;;5.20;;
6547;SDS011;3307;52.416;16.862;2022-09-20T01:45:54;6.35;;;5.10;;
6547;SDS011;3307;52.416;16.862;2022-09-20T01:51:05;6.20;;;5.28;;
6547;SDS011;3307;52.416;16.862;2022-09-20T01:59:43;4.90;;;4.40;;
6547;SDS011;3307;52.416;16.862;2022-09-20T02:11:03;5.95;;;5.15;;
6547;SDS011;3307;52.416;16.862;2022-09-20T02:16:43;5.97;;;5.30;;
6547;SDS011;3307;52.416;16.862;2022-09-20T02:22:07;5.10;;;4.30;;
6547;SDS011;3307;52.416;16.862;2022-09-20T02:35:46;4.88;;;4.47;;
6547;SDS011;3307;52.416;16.862;2022-09-20T02:38:24;4.50;;;4.10;;
6547;SDS011;3307;52.416;16.862;2022-09-20T03:24:44;3.97;;;3.63;;
6547;SDS011;3307;52.416;16.862;2022-09-20T03:27:38;3.13;;;2.83;;
6547;SDS011;3307;52.416;16.862;2022-09-20T03:41:47;4.00;;;3.25;;
6547;SDS011;3307;52.416;16.862;2022-09-20T03:44:44;3.58;;;2.70;;
6547;SDS011;3307;52.416;16.862;2022-09-20T03:48:11;4.65;;;3.30;;
6547;SDS011;3307;52.416;16.862;2022-09-20T03:50:48;3.83;;;3.35;;
6547;SDS011;3307;52.416;16.862;2022-09-20T03:59:13;3.42;;;3.13;;
6547;SDS011;3307;52.416;16.862;2022-09-20T04:05:11;4.20;;;3.78;;
6547;SDS011;3307;52.416;16.862;2022-09-20T04:10:51;3.65;;;3.10;;
6547;SDS011;3307;52.416;16.862;2022-09-20T04:19:16;4.43;;;3.38;;
6547;SDS011;3307;52.416;16.862;2022-09-20T04:21:48;4.35;;;3.90;;
6547;SDS011;3307;52.416;16.862;2022-09-20T04:26:57;4.60;;;3.75;;
6547;SDS011;3307;52.416;16.862;2022-09-20T04:29:28;4.88;;;3.30;;
6547;SDS011;3307;52.416;16.862;2022-09-20T04:32:01;3.83;;;2.95;;
6547;SDS011;3307;52.416;16.862;2022-09-20T04:34:47;3.70;;;3.40;;
6547;SDS011;3307;52.416;16.862;2022-09-20T04:37:38;4.10;;;3.60;;
6547;SDS011;3307;52.416;16.862;2022-09-20T04:40:12;4.22;;;3.83;;
6547;SDS011;3307;52.416;16.862;2022-09-20T04:59:09;4.80;;;4.00;;
6547;SDS011;3307;52.416;16.862;2022-09-20T05:02:14;4.50;;;4.10;;
6547;SDS011;3307;52.416;16.862;2022-09-20T05:15:53;5.40;;;4.75;;
6547;SDS011;3307;52.416;16.862;2022-09-20T05:23:51;7.60;;;5.30;;
6547;SDS011;3307;52.416;16.862;2022-09-20T05:26:36;6.32;;;5.03;;
6547;SDS011;3307;52.416;16.862;2022-09-20T05:29:26;5.53;;;5.03;;
6547;SDS011;3307;52.416;16.862;2022-09-20T05:37:34;5.65;;;5.15;;
6547;SDS011;3307;52.416;16.862;2022-09-20T05:48:27;4.97;;;4.47;;
6547;SDS011;3307;52.416;16.862;2022-09-20T05:50:59;6.32;;;5.20;;
6547;SDS011;3307;52.416;16.862;2022-09-20T05:56:14;6.82;;;6.22;;
6547;SDS011;3307;52.416;16.862;2022-09-20T05:58:54;6.88;;;5.93;;
6547;SDS011;3307;52.416;16.862;2022-09-20T06:01:40;6.80;;;6.20;;
6547;SDS011;3307;52.416;16.862;2022-09-20T06:04:22;6.90;;;5.88;;
6547;SDS011;3307;52.416;16.862;2022-09-20T06:17:27;6.53;;;6.03;;
6547;SDS011;3307;52.416;16.862;2022-09-20T06:22:41;8.65;;;7.53;;
6547;SDS011;3307;52.416;16.862;2022-09-20T06:27:38;7.90;;;7.20;;
6547;SDS011;3307;52.416;16.862;2022-09-20T06:30:24;8.05;;;7.25;;
6547;SDS011;3307;52.416;16.862;2022-09-20T06:32:55;9.60;;;8.70;;
6547;SDS011;3307;52.416;16.862;2022-09-20T06:41:11;8.40;;;7.50;;
6547;SDS011;3307;52.416;16.862;2022-09-20T06:43:59;10.60;;;9.73;;
6547;SDS011;3307;52.416;16.862;2022-09-20T06:46:29;8.50;;;7.80;;
6547;SDS011;3307;52.416;16.862;2022-09-20T06:48:56;11.38;;;7.88;;
6547;SDS011;3307;52.416;16.862;2022-09-20T06:51:22;10.20;;;9.20;;
6547;SDS011;3307;52.416;16.862;2022-09-20T06:53:48;10.18;;;9.15;;
6547;SDS011;3307;52.416;16.862;2022-09-20T06:56:18;9.50;;;8.70;;
6547;SDS011;3307;52.416;16.862;2022-09-20T06:58:45;10.52;;;7.97;;
6547;SDS011;3307;52.416;16.862;2022-09-20T07:01:10;9.03;;;8.13;;
6547;SDS011;3307;52.416;16.862;2022-09-20T07:03:37;9.70;;;8.70;;
6547;SDS011;3307;52.416;16.862;2022-09-20T07:06:03;9.23;;;8.40;;
6547;SDS011;3307;52.416;16.862;2022-09-20T07:08:29;10.40;;;9.47;;
6547;SDS011;3307;52.416;16.862;2022-09-20T07:10:54;11.07;;;9.77;;
6547;SDS011;3307;52.416;16.862;2022-09-20T07:13:20;10.03;;;9.10;;
6547;SDS011;3307;52.416;16.862;2022-09-20T07:15:45;10.20;;;9.20;;
6547;SDS011;3307;52.416;16.862;2022-09-20T07:18:11;10.50;;;9.60;;
6547;SDS011;3307;52.416;16.862;2022-09-20T07:20:36;10.20;;;9.20;;
6547;SDS011;3307;52.416;16.862;2022-09-20T07:23:02;9.73;;;8.93;;
6547;SDS011;3307;52.416;16.862;2022-09-20T07:25:28;9.83;;;8.83;;
6547;SDS011;3307;52.416;16.862;2022-09-20T07:27:54;8.77;;;7.88;;
6547;SDS011;3307;52.416;16.862;2022-09-20T07:30:20;9.23;;;8.50;;
6547;SDS011;3307;52.416;16.862;2022-09-20T07:32:45;9.47;;;8.67;;
6547;SDS011;3307;52.416;16.862;2022-09-20T07:35:11;9.80;;;9.00;;
6547;SDS011;3307;52.416;16.862;2022-09-20T07:37:37;9.70;;;8.93;;
6547;SDS011;3307;52.416;16.862;2022-09-20T07:40:05;9.45;;;8.75;;
6547;SDS011;3307;52.416;16.862;2022-09-20T07:42:31;10.32;;;9.13;;
6547;SDS011;3307;52.416;16.862;2022-09-20T07:44:56;11.00;;;9.90;;
6547;SDS011;3307;52.416;16.862;2022-09-20T07:47:22;8.90;;;8.10;;
6547;SDS011;3307;52.416;16.862;2022-09-20T07:49:51;9.15;;;8.45;;
6547;SDS011;3307;52.416;16.862;2022-09-20T07:52:17;8.67;;;7.80;;
6547;SDS011;3307;52.416;16.862;2022-09-20T07:54:43;9.50;;;8.63;;
6547;SDS011;3307;52.416;16.862;2022-09-20T07:57:10;9.25;;;8.45;;
6547;SDS011;3307;52.416;16.862;2022-09-20T07:59:35;8.40;;;7.70;;
6547;SDS011;3307;52.416;16.862;2022-09-20T08:02:01;8.60;;;7.80;;
6547;SDS011;3307;52.416;16.862;2022-09-20T08:04:26;9.00;;;8.10;;
6547;SDS011;3307;52.416;16.862;2022-09-20T08:06:52;10.40;;;9.47;;
6547;SDS011;3307;52.416;16.862;2022-09-20T08:09:17;8.80;;;8.07;;
6547;SDS011;3307;52.416;16.862;2022-09-20T08:11:43;8.80;;;7.93;;
6547;SDS011;3307;52.416;16.862;2022-09-20T08:14:14;7.50;;;6.90;;
6547;SDS011;3307;52.416;16.862;2022-09-20T08:16:41;7.18;;;6.57;;
6547;SDS011;3307;52.416;16.862;2022-09-20T08:19:08;7.97;;;7.18;;
6547;SDS011;3307;52.416;16.862;2022-09-20T08:21:38;7.88;;;7.25;;
6547;SDS011;3307;52.416;16.862;2022-09-20T08:24:05;7.53;;;7.03;;
6547;SDS011;3307;52.416;16.862;2022-09-20T08:26:30;8.03;;;7.43;;
6547;SDS011;3307;52.416;16.862;2022-09-20T08:28:56;7.47;;;6.40;;
6547;SDS011;3307;52.416;16.862;2022-09-20T08:31:27;6.40;;;5.93;;
6547;SDS011;3307;52.416;16.862;2022-09-20T08:33:59;6.18;;;5.65;;
6547;SDS011;3307;52.416;16.862;2022-09-20T08:36:29;6.80;;;6.20;;
6547;SDS011;3307;52.416;16.862;2022-09-20T08:38:55;5.50;;;5.07;;
6547;SDS011;3307;52.416;16.862;2022-09-20T08:44:04;6.93;;;5.18;;
6547;SDS011;3307;52.416;16.862;2022-09-20T08:46:36;6.40;;;5.28;;
6547;SDS011;3307;52.416;16.862;2022-09-20T08:49:04;5.57;;;4.93;;
6547;SDS011;3307;52.416;16.862;2022-09-20T08:51:32;5.50;;;5.00;;
6547;SDS011;3307;52.416;16.862;2022-09-20T08:53:59;6.60;;;6.00;;
6547;SDS011;3307;52.416;16.862;2022-09-20T08:56:29;6.83;;;5.20;;
6547;SDS011;3307;52.416;16.862;2022-09-20T08:58:57;4.90;;;4.50;;
6547;SDS011;3307;52.416;16.862;2022-09-20T09:01:25;5.30;;;4.90;;
6547;SDS011;3307;52.416;16.862;2022-09-20T09:03:57;4.72;;;4.32;;
6547;SDS011;3307;52.416;16.862;2022-09-20T09:06:26;5.05;;;4.55;;
6547;SDS011;3307;52.416;16.862;2022-09-20T09:08:52;5.97;;;4.23;;
6547;SDS011;3307;52.416;16.862;2022-09-20T09:11:20;4.80;;;4.50;;
6547;SDS011;3307;52.416;16.862;2022-09-20T09:14:01;4.95;;;4.55;;
6547;SDS011;3307;52.416;16.862;2022-09-20T09:16:51;4.53;;;4.15;;
6547;SDS011;3307;52.416;16.862;2022-09-20T09:19:26;4.87;;;4.47;;
6547;SDS011;3307;52.416;16.862;2022-09-20T09:21:57;4.68;;;4.28;;
6547;SDS011;3307;52.416;16.862;2022-09-20T09:24:23;5.88;;;5.00;;
6547;SDS011;3307;52.416;16.862;2022-09-20T09:26:49;4.95;;;4.45;;
6547;SDS011;3307;52.416;16.862;2022-09-20T09:29:16;4.80;;;4.40;;
6547;SDS011;3307;52.416;16.862;2022-09-20T09:31:45;5.28;;;4.78;;
6547;SDS011;3307;52.416;16.862;2022-09-20T09:34:25;4.50;;;4.10;;
6547;SDS011;3307;52.416;16.862;2022-09-20T09:36:52;4.20;;;3.80;;
6547;SDS011;3307;52.416;16.862;2022-09-20T09:41:56;3.95;;;3.30;;
6547;SDS011;3307;52.416;16.862;2022-09-20T09:44:29;4.32;;;3.67;;
6547;SDS011;3307;52.416;16.862;2022-09-20T09:46:56;3.30;;;3.00;;
6547;SDS011;3307;52.416;16.862;2022-09-20T09:49:23;4.53;;;3.07;;
6547;SDS011;3307;52.416;16.862;2022-09-20T09:54:21;3.08;;;2.13;;
6547;SDS011;3307;52.416;16.862;2022-09-20T09:56:58;3.70;;;2.17;;
6547;SDS011;3307;52.416;16.862;2022-09-20T10:05:30;2.70;;;2.50;;
6547;SDS011;3307;52.416;16.862;2022-09-20T10:08:15;2.63;;;2.42;;
6547;SDS011;3307;52.416;16.862;2022-09-20T10:13:23;2.53;;;1.90;;
6547;SDS011;3307;52.416;16.862;2022-09-20T10:15:55;2.88;;;2.03;;
6547;SDS011;3307;52.416;16.862;2022-09-20T10:24:05;3.63;;;1.80;;
6547;SDS011;3307;52.416;16.862;2022-09-20T10:32:16;2.70;;;1.63;;
6547;SDS011;3307;52.416;16.862;2022-09-20T10:40:29;2.67;;;1.10;;
6547;SDS011;3307;52.416;16.862;2022-09-20T10:43:21;1.60;;;1.50;;
6547;SDS011;3307;52.416;16.862;2022-09-20T10:48:41;2.15;;;1.70;;
6547;SDS011;3307;52.416;16.862;2022-09-20T10:56:36;3.47;;;1.10;;
6547;SDS011;3307;52.416;16.862;2022-09-20T11:02:40;2.37;;;1.30;;
6547;SDS011;3307;52.416;16.862;2022-09-20T11:05:25;2.15;;;1.40;;
6547;SDS011;3307;52.416;16.862;2022-09-20T11:13:01;1.38;;;1.20;;
6547;SDS011;3307;52.416;16.862;2022-09-20T11:15:43;1.50;;;1.40;;
6547;SDS011;3307;52.416;16.862;2022-09-20T11:21:33;4.07;;;2.85;;
6547;SDS011;3307;52.416;16.862;2022-09-20T11:26:41;1.60;;;1.17;;
6547;SDS011;3307;52.416;16.862;2022-09-20T11:29:32;3.05;;;1.80;;
6547;SDS011;3307;52.416;16.862;2022-09-20T11:32:03;3.15;;;1.30;;
6547;SDS011;3307;52.416;16.862;2022-09-20T11:34:36;3.28;;;2.42;;
6547;SDS011;3307;52.416;16.862;2022-09-20T11:37:08;3.35;;;2.30;;
6547;SDS011;3307;52.416;16.862;2022-09-20T11:42:23;1.63;;;1.50;;
6547;SDS011;3307;52.416;16.862;2022-09-20T11:44:50;3.77;;;1.57;;
6547;SDS011;3307;52.416;16.862;2022-09-20T11:47:29;1.40;;;1.20;;
6547;SDS011;3307;52.416;16.862;2022-09-20T11:55:48;2.92;;;1.60;;
6547;SDS011;3307;52.416;16.862;2022-09-20T11:58:16;1.67;;;1.53;;
6547;SDS011;3307;52.416;16.862;2022-09-20T12:00:45;2.27;;;1.63;;
6547;SDS011;3307;52.416;16.862;2022-09-20T12:06:07;1.73;;;1.20;;
6547;SDS011;3307;52.416;16.862;2022-09-20T12:09:01;2.87;;;2.40;;
6547;SDS011;3307;52.416;16.862;2022-09-20T12:11:35;2.13;;;1.93;;
6547;SDS011;3307;52.416;16.862;2022-09-20T12:14:06;1.40;;;1.30;;
6547;SDS011;3307;52.416;16.862;2022-09-20T12:16:42;2.00;;;1.70;;
6547;SDS011;3307;52.416;16.862;2022-09-20T12:24:29;1.30;;;1.10;;
6547;SDS011;3307;52.416;16.862;2022-09-20T12:26:57;1.00;;;0.90;;
6547;SDS011;3307;52.416;16.862;2022-09-20T12:32:00;1.50;;;1.40;;
6547;SDS011;3307;52.416;16.862;2022-09-20T12:34:27;1.42;;;1.30;;
6547;SDS011;3307;52.416;16.862;2022-09-20T12:39:24;1.10;;;0.90;;
6547;SDS011;3307;52.416;16.862;2022-09-20T12:44:53;1.27;;;1.13;;
6547;SDS011;3307;52.416;16.862;2022-09-20T12:47:27;2.20;;;1.40;;
6547;SDS011;3307;52.416;16.862;2022-09-20T12:49:55;2.10;;;1.47;;
6547;SDS011;3307;52.416;16.862;2022-09-20T12:56:03;1.33;;;1.20;;
6547;SDS011;3307;52.416;16.862;2022-09-20T12:58:21;1.40;;;1.10;;
6547;SDS011;3307;52.416;16.862;2022-09-20T13:03:26;2.30;;;1.30;;
6547;SDS011;3307;52.416;16.862;2022-09-20T13:08:42;1.23;;;0.88;;
6547;SDS011;3307;52.416;16.862;2022-09-20T13:13:57;1.25;;;0.85;;
6547;SDS011;3307;52.416;16.862;2022-09-20T13:21:30;0.90;;;0.68;;
6547;SDS011;3307;52.416;16.862;2022-09-20T13:23:56;1.45;;;0.68;;
6547;SDS011;3307;52.416;16.862;2022-09-20T13:26:25;0.70;;;0.60;;
6547;SDS011;3307;52.416;16.862;2022-09-20T13:28:54;1.25;;;0.75;;
6547;SDS011;3307;52.416;16.862;2022-09-20T13:31:23;0.80;;;0.70;;
6547;SDS011;3307;52.416;16.862;2022-09-20T13:33:50;1.10;;;0.70;;
6547;SDS011;3307;52.416;16.862;2022-09-20T13:36:24;0.90;;;0.80;;
6547;SDS011;3307;52.416;16.862;2022-09-20T13:38:51;0.85;;;0.70;;
6547;SDS011;3307;52.416;16.862;2022-09-20T13:41:17;0.93;;;0.55;;
6547;SDS011;3307;52.416;16.862;2022-09-20T13:43:43;1.37;;;0.80;;
6547;SDS011;3307;52.416;16.862;2022-09-20T13:46:14;1.00;;;0.90;;
6547;SDS011;3307;52.416;16.862;2022-09-20T13:48:41;2.05;;;0.95;;
6547;SDS011;3307;52.416;16.862;2022-09-20T13:51:17;1.33;;;1.00;;
6547;SDS011;3307;52.416;16.862;2022-09-20T13:53:44;1.63;;;0.93;;
6547;SDS011;3307;52.416;16.862;2022-09-20T13:56:16;4.82;;;0.85;;
6547;SDS011;3307;52.416;16.862;2022-09-20T13:58:45;3.58;;;0.80;;
6547;SDS011;3307;52.416;16.862;2022-09-20T14:03:49;1.85;;;0.90;;
6547;SDS011;3307;52.416;16.862;2022-09-20T14:06:14;1.73;;;0.80;;
6547;SDS011;3307;52.416;16.862;2022-09-20T14:08:44;2.70;;;0.67;;
6547;SDS011;3307;52.416;16.862;2022-09-20T14:11:12;0.80;;;0.60;;
6547;SDS011;3307;52.416;16.862;2022-09-20T14:13:59;0.80;;;0.75;;
6547;SDS011;3307;52.416;16.862;2022-09-20T14:16:30;1.67;;;0.82;;
6547;SDS011;3307;52.416;16.862;2022-09-20T14:18:57;1.17;;;0.90;;
6547;SDS011;3307;52.416;16.862;2022-09-20T14:21:24;0.77;;;0.75;;
6547;SDS011;3307;52.416;16.862;2022-09-20T14:26:25;1.77;;;1.02;;
6547;SDS011;3307;52.416;16.862;2022-09-20T14:28:53;1.52;;;1.42;;
6547;SDS011;3307;52.416;16.862;2022-09-20T14:31:21;1.42;;;1.33;;
6547;SDS011;3307;52.416;16.862;2022-09-20T14:33:49;1.20;;;1.08;;
6547;SDS011;3307;52.416;16.862;2022-09-20T14:36:21;1.30;;;1.20;;
6547;SDS011;3307;52.416;16.862;2022-09-20T14:38:52;1.23;;;0.85;;
6547;SDS011;3307;52.416;16.862;2022-09-20T14:41:26;1.23;;;1.10;;
6547;SDS011;3307;52.416;16.862;2022-09-20T14:43:58;1.45;;;1.17;;
6547;SDS011;3307;52.416;16.862;2022-09-20T14:46:28;0.85;;;0.75;;
6547;SDS011;3307;52.416;16.862;2022-09-20T14:49:17;1.90;;;0.90;;
6547;SDS011;3307;52.416;16.862;2022-09-20T14:51:49;1.33;;;0.90;;
6547;SDS011;3307;52.416;16.862;2022-09-20T14:54:28;1.23;;;0.90;;
6547;SDS011;3307;52.416;16.862;2022-09-20T14:56:55;1.00;;;0.90;;
6547;SDS011;3307;52.416;16.862;2022-09-20T14:59:25;0.70;;;0.70;;
6547;SDS011;3307;52.416;16.862;2022-09-20T15:01:56;1.42;;;1.10;;
6547;SDS011;3307;52.416;16.862;2022-09-20T15:04:25;1.25;;;0.80;;
6547;SDS011;3307;52.416;16.862;2022-09-20T15:06:52;1.00;;;0.80;;
6547;SDS011;3307;52.416;16.862;2022-09-20T15:09:18;1.55;;;1.02;;
6547;SDS011;3307;52.416;16.862;2022-09-20T15:11:44;1.00;;;0.70;;
6547;SDS011;3307;52.416;16.862;2022-09-20T15:14:10;0.93;;;0.80;;
6547;SDS011;3307;52.416;16.862;2022-09-20T15:16:35;2.57;;;1.00;;
6547;SDS011;3307;52.416;16.862;2022-09-20T15:19:01;0.80;;;0.80;;
6547;SDS011;3307;52.416;16.862;2022-09-20T15:21:26;2.40;;;1.13;;
6547;SDS011;3307;52.416;16.862;2022-09-20T15:23:51;1.20;;;1.10;;
6547;SDS011;3307;52.416;16.862;2022-09-20T15:26:20;1.40;;;1.10;;
6547;SDS011;3307;52.416;16.862;2022-09-20T15:28:46;1.50;;;0.93;;
6547;SDS011;3307;52.416;16.862;2022-09-20T15:31:12;1.50;;;1.03;;
6547;SDS011;3307;52.416;16.862;2022-09-20T15:33:39;0.75;;;0.75;;
6547;SDS011;3307;52.416;16.862;2022-09-20T15:36:04;0.70;;;0.60;;
6547;SDS011;3307;52.416;16.862;2022-09-20T15:38:30;1.10;;;0.77;;
6547;SDS011;3307;52.416;16.862;2022-09-20T15:40:58;1.40;;;1.10;;
6547;SDS011;3307;52.416;16.862;2022-09-20T15:43:24;1.08;;;0.90;;
6547;SDS011;3307;52.416;16.862;2022-09-20T15:45:52;2.03;;;0.95;;
6547;SDS011;3307;52.416;16.862;2022-09-20T15:48:21;1.45;;;1.00;;
6547;SDS011;3307;52.416;16.862;2022-09-20T15:53:27;1.00;;;0.80;;
6547;SDS011;3307;52.416;16.862;2022-09-20T15:55:56;1.85;;;1.00;;
6547;SDS011;3307;52.416;16.862;2022-09-20T15:58:24;1.05;;;0.95;;
6547;SDS011;3307;52.416;16.862;2022-09-20T16:00:49;1.50;;;1.23;;
6547;SDS011;3307;52.416;16.862;2022-09-20T16:03:15;2.03;;;1.20;;
6547;SDS011;3307;52.416;16.862;2022-09-20T16:05:41;3.58;;;2.28;;
6547;SDS011;3307;52.416;16.862;2022-09-20T16:08:07;1.90;;;1.63;;
6547;SDS011;3307;52.416;16.862;2022-09-20T16:10:32;1.50;;;1.30;;
6547;SDS011;3307;52.416;16.862;2022-09-20T16:12:58;2.43;;;1.30;;
6547;SDS011;3307;52.416;16.862;2022-09-20T16:15:23;3.40;;;2.63;;
6547;SDS011;3307;52.416;16.862;2022-09-20T16:17:48;5.50;;;2.40;;
6547;SDS011;3307;52.416;16.862;2022-09-20T16:20:32;5.32;;;3.10;;
6547;SDS011;3307;52.416;16.862;2022-09-20T16:22:58;3.93;;;2.90;;
6547;SDS011;3307;52.416;16.862;2022-09-20T16:25:23;3.30;;;2.77;;
6547;SDS011;3307;52.416;16.862;2022-09-20T16:27:49;2.03;;;1.20;;
6547;SDS011;3307;52.416;16.862;2022-09-20T16:30:14;2.50;;;2.00;;
6547;SDS011;3307;52.416;16.862;2022-09-20T16:32:44;3.30;;;2.30;;
6547;SDS011;3307;52.416;16.862;2022-09-20T16:35:10;5.20;;;3.28;;
6547;SDS011;3307;52.416;16.862;2022-09-20T16:37:35;4.73;;;2.57;;
6547;SDS011;3307;52.416;16.862;2022-09-20T16:40:01;5.30;;;2.43;;
6547;SDS011;3307;52.416;16.862;2022-09-20T16:42:26;4.20;;;2.30;;
6547;SDS011;3307;52.416;16.862;2022-09-20T16:44:51;3.00;;;2.20;;
6547;SDS011;3307;52.416;16.862;2022-09-20T16:47:17;4.07;;;3.30;;
6547;SDS011;3307;52.416;16.862;2022-09-20T16:49:46;4.28;;;2.70;;
6547;SDS011;3307;52.416;16.862;2022-09-20T16:52:11;4.00;;;2.80;;
6547;SDS011;3307;52.416;16.862;2022-09-20T16:54:37;3.47;;;2.30;;
6547;SDS011;3307;52.416;16.862;2022-09-20T16:57:02;4.03;;;2.87;;
6547;SDS011;3307;52.416;16.862;2022-09-20T16:59:29;3.10;;;2.10;;
6547;SDS011;3307;52.416;16.862;2022-09-20T17:01:54;2.30;;;2.10;;
6547;SDS011;3307;52.416;16.862;2022-09-20T17:04:20;4.80;;;2.10;;
6547;SDS011;3307;52.416;16.862;2022-09-20T17:06:46;2.90;;;2.37;;
6547;SDS011;3307;52.416;16.862;2022-09-20T17:09:12;4.13;;;2.20;;
6547;SDS011;3307;52.416;16.862;2022-09-20T17:11:42;2.72;;;2.53;;
6547;SDS011;3307;52.416;16.862;2022-09-20T17:14:10;3.22;;;2.25;;
6547;SDS011;3307;52.416;16.862;2022-09-20T17:16:36;3.03;;;2.70;;
6547;SDS011;3307;52.416;16.862;2022-09-20T17:19:04;4.32;;;2.83;;
6547;SDS011;3307;52.416;16.862;2022-09-20T17:21:41;5.00;;;2.70;;
6547;SDS011;3307;52.416;16.862;2022-09-20T17:24:09;3.65;;;2.90;;
6547;SDS011;3307;52.416;16.862;2022-09-20T17:26:36;3.33;;;2.23;;
6547;SDS011;3307;52.416;16.862;2022-09-20T17:29:03;3.70;;;2.10;;
6547;SDS011;3307;52.416;16.862;2022-09-20T17:31:30;1.60;;;1.40;;
6547;SDS011;3307;52.416;16.862;2022-09-20T17:34:01;4.30;;;2.10;;
6547;SDS011;3307;52.416;16.862;2022-09-20T17:36:32;1.90;;;1.80;;
6547;SDS011;3307;52.416;16.862;2022-09-20T17:38:59;1.70;;;1.60;;
6547;SDS011;3307;52.416;16.862;2022-09-20T17:41:26;2.38;;;1.65;;
6547;SDS011;3307;52.416;16.862;2022-09-20T17:43:53;2.38;;;1.85;;
6547;SDS011;3307;52.416;16.862;2022-09-20T17:46:26;2.80;;;1.98;;
6547;SDS011;3307;52.416;16.862;2022-09-20T17:48:56;2.33;;;1.73;;
6547;SDS011;3307;52.416;16.862;2022-09-20T17:51:31;2.92;;;2.00;;
6547;SDS011;3307;52.416;16.862;2022-09-20T17:53:57;5.82;;;2.38;;
6547;SDS011;3307;52.416;16.862;2022-09-20T17:56:23;1.80;;;1.70;;
6547;SDS011;3307;52.416;16.862;2022-09-20T17:58:56;2.65;;;2.05;;
6547;SDS011;3307;52.416;16.862;2022-09-20T18:01:28;3.08;;;2.30;;
6547;SDS011;3307;52.416;16.862;2022-09-20T18:03:55;3.63;;;2.30;;
6547;SDS011;3307;52.416;16.862;2022-09-20T18:06:23;2.92;;;2.47;;
6547;SDS011;3307;52.416;16.862;2022-09-20T18:09:13;2.72;;;2.40;;
6547;SDS011;3307;52.416;16.862;2022-09-20T18:11:40;3.40;;;2.60;;
6547;SDS011;3307;52.416;16.862;2022-09-20T18:14:09;6.43;;;2.67;;
6547;SDS011;3307;52.416;16.862;2022-09-20T18:16:34;4.73;;;3.83;;
6547;SDS011;3307;52.416;16.862;2022-09-20T18:19:01;4.45;;;3.65;;
6547;SDS011;3307;52.416;16.862;2022-09-20T18:21:27;5.37;;;3.60;;
6547;SDS011;3307;52.416;16.862;2022-09-20T18:23:54;4.65;;;3.72;;
6547;SDS011;3307;52.416;16.862;2022-09-20T18:26:24;4.60;;;3.88;;
6547;SDS011;3307;52.416;16.862;2022-09-20T18:31:39;4.53;;;4.00;;
6547;SDS011;3307;52.416;16.862;2022-09-20T18:34:13;4.00;;;3.22;;
6547;SDS011;3307;52.416;16.862;2022-09-20T18:36:42;2.90;;;2.60;;
6547;SDS011;3307;52.416;16.862;2022-09-20T18:39:09;3.78;;;3.10;;
6547;SDS011;3307;52.416;16.862;2022-09-20T18:41:35;4.95;;;3.55;;
6547;SDS011;3307;52.416;16.862;2022-09-20T18:44:02;4.50;;;3.38;;
6547;SDS011;3307;52.416;16.862;2022-09-20T18:46:29;4.65;;;3.15;;
6547;SDS011;3307;52.416;16.862;2022-09-20T18:48:56;4.23;;;3.53;;
6547;SDS011;3307;52.416;16.862;2022-09-20T18:51:24;3.90;;;3.45;;
6547;SDS011;3307;52.416;16.862;2022-09-20T18:53:53;4.35;;;3.78;;
6547;SDS011;3307;52.416;16.862;2022-09-20T18:56:23;3.95;;;3.20;;
6547;SDS011;3307;52.416;16.862;2022-09-20T19:12:42;4.97;;;3.92;;
6547;SDS011;3307;52.416;16.862;2022-09-20T19:26:39;8.15;;;4.40;;
6547;SDS011;3307;52.416;16.862;2022-09-20T19:29:15;5.10;;;3.60;;
6547;SDS011;3307;52.416;16.862;2022-09-20T19:31:49;4.07;;;3.67;;
6547;SDS011;3307;52.416;16.862;2022-09-20T19:34:19;4.32;;;4.03;;
6547;SDS011;3307;52.416;16.862;2022-09-20T19:52:32;8.50;;;6.53;;
6547;SDS011;3307;52.416;16.862;2022-09-20T19:54:58;9.50;;;6.60;;
6547;SDS011;3307;52.416;16.862;2022-09-20T19:57:42;8.90;;;6.43;;
6547;SDS011;3307;52.416;16.862;2022-09-20T20:00:11;10.27;;;9.27;;
6547;SDS011;3307;52.416;16.862;2022-09-20T20:02:42;6.55;;;5.95;;
6547;SDS011;3307;52.416;16.862;2022-09-20T20:05:15;6.57;;;5.53;;
6547;SDS011;3307;52.416;16.862;2022-09-20T20:07:51;6.72;;;5.82;;
6547;SDS011;3307;52.416;16.862;2022-09-20T20:24:53;6.40;;;5.32;;
6547;SDS011;3307;52.416;16.862;2022-09-20T20:27:20;7.20;;;6.50;;
6547;SDS011;3307;52.416;16.862;2022-09-20T20:29:46;7.43;;;6.22;;
6547;SDS011;3307;52.416;16.862;2022-09-20T20:32:12;9.20;;;6.40;;
6547;SDS011;3307;52.416;16.862;2022-09-20T20:34:39;9.20;;;6.40;;
6547;SDS011;3307;52.416;16.862;2022-09-20T20:37:04;12.97;;;10.20;;
6547;SDS011;3307;52.416;16.862;2022-09-20T20:39:30;9.70;;;7.63;;
6547;SDS011;3307;52.416;16.862;2022-09-20T20:41:56;7.13;;;5.77;;
6547;SDS011;3307;52.416;16.862;2022-09-20T20:44:25;6.97;;;6.00;;
6547;SDS011;3307;52.416;16.862;2022-09-20T20:46:51;6.05;;;5.30;;
6547;SDS011;3307;52.416;16.862;2022-09-20T20:49:17;6.67;;;5.63;;
6547;SDS011;3307;52.416;16.862;2022-09-20T20:51:42;8.40;;;6.30;;
6547;SDS011;3307;52.416;16.862;2022-09-20T20:54:08;9.10;;;6.50;;
6547;SDS011;3307;52.416;16.862;2022-09-20T20:56:34;6.90;;;6.15;;
6547;SDS011;3307;52.416;16.862;2022-09-20T20:59:01;7.40;;;6.70;;
6547;SDS011;3307;52.416;16.862;2022-09-20T21:01:28;6.68;;;5.95;;
6547;SDS011;3307;52.416;16.862;2022-09-20T21:03:55;6.80;;;6.10;;
6547;SDS011;3307;52.416;16.862;2022-09-20T21:06:22;8.30;;;6.28;;
6547;SDS011;3307;52.416;16.862;2022-09-20T21:08:52;7.93;;;6.90;;
6547;SDS011;3307;52.416;16.862;2022-09-20T21:11:18;7.10;;;5.80;;
6547;SDS011;3307;52.416;16.862;2022-09-20T21:13:47;6.95;;;6.13;;
6547;SDS011;3307;52.416;16.862;2022-09-20T21:16:14;8.40;;;6.50;;